Time;durP1;ratioP1;P1;durP2;ratioP2;P2;SDS_P1;SDS_P2;PMS_P1;PMS_P2;Temp;Humidity;BMP_temperature;BMP_pressure;BME280_temperature;BME280_humidity;BME280_pressure;Samples;Min_cycle;Max_cycle;Signal;HPM_P1;HPM_P2
2023/09/08 00:00:58;;;;;;;7.50;6.00;;;;;;;;;;5080302;28;20108;-68
2023/09/08 00:03:23;;;;;;;7.75;5.90;;;;;;;;;;5091689;28;20941;-67
2023/09/08 00:05:49;;;;;;;12.73;6.13;;;;;;;;;;5091103;28;20024;-67
2023/09/08 00:08:14;;;;;;;6.70;5.50;;;;;;;;;;5090721;28;20364;-67
2023/09/08 00:10:40;;;;;;;7.90;5.25;;;;;;;;;;5092963;28;20426;-68
2023/09/08 00:13:05;;;;;;;6.45;5.13;;;;;;;;;;5092794;28;20095;-68
2023/09/08 00:15:33;;;;;;;8.00;5.00;;;;;;;;;;5093083;28;20016;-67
2023/09/08 00:17:59;;;;;;;7.47;5.82;;;;;;;;;;5092143;28;20310;-68
2023/09/08 00:20:24;;;;;;;6.93;5.82;;;;;;;;;;5092777;28;20063;-67
2023/09/08 00:22:49;;;;;;;6.80;5.35;;;;;;;;;;5091499;28;20043;-67
2023/09/08 00:25:15;;;;;;;7.20;5.68;;;;;;;;;;5092346;28;20028;-68
2023/09/08 00:27:40;;;;;;;7.43;5.90;;;;;;;;;;5091336;28;20024;-67
2023/09/08 00:30:05;;;;;;;7.00;6.27;;;;;;;;;;5091196;28;20039;-67
2023/09/08 00:32:31;;;;;;;7.80;6.07;;;;;;;;;;5089954;28;20274;-67
2023/09/08 00:34:56;;;;;;;8.27;6.25;;;;;;;;;;5091911;28;20474;-68
2023/09/08 00:37:21;;;;;;;6.87;5.63;;;;;;;;;;5087512;28;20055;-68
2023/09/08 00:39:47;;;;;;;7.95;6.50;;;;;;;;;;5073530;28;20317;-67
2023/09/08 00:42:12;;;;;;;8.05;5.93;;;;;;;;;;5073837;28;20028;-67
2023/09/08 00:44:37;;;;;;;8.13;6.17;;;;;;;;;;5072607;28;20024;-67
2023/09/08 00:47:02;;;;;;;7.70;6.33;;;;;;;;;;5074914;28;20262;-67
2023/09/08 00:49:28;;;;;;;6.80;5.93;;;;;;;;;;5073452;28;20270;-67
2023/09/08 00:51:53;;;;;;;11.43;6.68;;;;;;;;;;5078199;28;20111;-67
2023/09/08 00:54:19;;;;;;;9.60;6.47;;;;;;;;;;5092480;28;20020;-67
2023/09/08 00:56:44;;;;;;;9.43;7.13;;;;;;;;;;5080743;28;20100;-67
2023/09/08 00:59:09;;;;;;;8.63;6.68;;;;;;;;;;5076951;28;20382;-67
2023/09/08 01:01:35;;;;;;;7.25;6.28;;;;;;;;;;5091802;28;20024;-67
2023/09/08 01:04:00;;;;;;;8.10;6.85;;;;;;;;;;5085743;28;20589;-67
2023/09/08 01:06:26;;;;;;;8.05;6.20;;;;;;;;;;5083362;28;20036;-68
2023/09/08 01:08:51;;;;;;;9.07;6.65;;;;;;;;;;5088831;28;20047;-68
2023/09/08 01:11:19;;;;;;;8.60;7.28;;;;;;;;;;5092134;28;20077;-68
2023/09/08 01:13:44;;;;;;;8.35;7.05;;;;;;;;;;5080483;28;20542;-68
2023/09/08 01:16:09;;;;;;;10.63;6.75;;;;;;;;;;5084864;28;20100;-69
2023/09/08 01:18:35;;;;;;;7.82;6.47;;;;;;;;;;5092374;28;20456;-67
2023/09/08 01:21:13;;;;;;;7.20;6.50;;;;;;;;;;5087172;28;20027;-67
2023/09/08 01:23:38;;;;;;;7.68;6.65;;;;;;;;;;5072020;28;20048;-67
2023/09/08 01:26:07;;;;;;;7.50;6.43;;;;;;;;;;5078104;28;20467;-68
2023/09/08 01:28:32;;;;;;;8.85;6.30;;;;;;;;;;5091934;28;20359;-68
2023/09/08 01:30:57;;;;;;;11.15;7.03;;;;;;;;;;5077991;28;20062;-68
2023/09/08 01:33:23;;;;;;;9.65;6.90;;;;;;;;;;5081831;28;20482;-69
2023/09/08 01:35:49;;;;;;;8.65;7.32;;;;;;;;;;5091734;28;20374;-68
2023/09/08 01:38:14;;;;;;;8.95;7.25;;;;;;;;;;5091831;28;20450;-68
2023/09/08 01:40:39;;;;;;;9.68;7.10;;;;;;;;;;5078135;28;20012;-68
2023/09/08 01:43:05;;;;;;;7.97;7.00;;;;;;;;;;5079378;28;20103;-68
2023/09/08 01:45:30;;;;;;;10.02;7.38;;;;;;;;;;5089418;28;20352;-68
2023/09/08 01:47:55;;;;;;;8.20;6.78;;;;;;;;;;5088475;28;20438;-69
2023/09/08 01:50:22;;;;;;;8.30;7.07;;;;;;;;;;5090143;28;20031;-69
2023/09/08 01:52:48;;;;;;;8.43;6.88;;;;;;;;;;5091747;28;20286;-69
2023/09/08 01:55:13;;;;;;;7.88;6.97;;;;;;;;;;5091579;28;20031;-68
2023/09/08 01:57:38;;;;;;;7.65;6.75;;;;;;;;;;5089044;28;20024;-68
2023/09/08 02:00:04;;;;;;;9.57;6.83;;;;;;;;;;5080867;28;20166;-69
2023/09/08 02:02:29;;;;;;;9.07;7.32;;;;;;;;;;5088873;28;20281;-69
2023/09/08 02:04:54;;;;;;;9.87;6.97;;;;;;;;;;5080673;28;20028;-69
2023/09/08 02:07:19;;;;;;;8.40;6.40;;;;;;;;;;5090480;28;20361;-68
2023/09/08 02:09:44;;;;;;;8.75;6.95;;;;;;;;;;5089704;28;20301;-68
2023/09/08 02:12:10;;;;;;;8.10;7.05;;;;;;;;;;5091318;28;20031;-68
2023/09/08 02:14:35;;;;;;;6.55;5.80;;;;;;;;;;5090384;28;20466;-68
2023/09/08 02:17:00;;;;;;;7.28;6.05;;;;;;;;;;5091074;28;20081;-67
2023/09/08 02:19:26;;;;;;;7.35;6.45;;;;;;;;;;5085308;28;20094;-67
2023/09/08 02:21:51;;;;;;;8.45;6.80;;;;;;;;;;5081713;28;20107;-67
2023/09/08 02:24:16;;;;;;;8.93;7.63;;;;;;;;;;5090775;28;20363;-67
2023/09/08 02:26:41;;;;;;;9.65;7.88;;;;;;;;;;5077539;28;20294;-67
2023/09/08 02:29:07;;;;;;;9.93;7.38;;;;;;;;;;5090187;28;20038;-67
2023/09/08 02:31:32;;;;;;;9.63;7.47;;;;;;;;;;5092232;28;20024;-67
2023/09/08 02:33:58;;;;;;;8.68;6.78;;;;;;;;;;5093502;28;20024;-67
2023/09/08 02:36:26;;;;;;;8.00;7.03;;;;;;;;;;5093611;28;20028;-67
2023/09/08 02:38:55;;;;;;;8.15;6.82;;;;;;;;;;5093108;28;20303;-67
2023/09/08 02:41:20;;;;;;;7.80;6.47;;;;;;;;;;5093239;28;20052;-67
2023/09/08 02:43:45;;;;;;;10.32;6.43;;;;;;;;;;5093755;28;20058;-68
2023/09/08 02:46:11;;;;;;;7.55;6.80;;;;;;;;;;5093703;28;20052;-69
2023/09/08 02:48:36;;;;;;;8.80;7.18;;;;;;;;;;5081219;28;20031;-68
2023/09/08 02:51:01;;;;;;;8.20;6.63;;;;;;;;;;5094231;28;20061;-69
2023/09/08 02:53:28;;;;;;;7.90;6.88;;;;;;;;;;5093170;28;20378;-69
2023/09/08 02:55:54;;;;;;;7.60;6.25;;;;;;;;;;5092974;28;20050;-68
2023/09/08 02:58:19;;;;;;;8.30;6.53;;;;;;;;;;5092478;28;20028;-69
2023/09/08 03:00:44;;;;;;;9.13;6.95;;;;;;;;;;5093868;28;20074;-67
2023/09/08 03:03:09;;;;;;;8.38;7.18;;;;;;;;;;5080798;28;20376;-66
2023/09/08 03:05:35;;;;;;;11.67;7.00;;;;;;;;;;5093542;28;20486;-66
2023/09/08 03:08:00;;;;;;;8.68;7.18;;;;;;;;;;5093577;28;20648;-66
2023/09/08 03:10:25;;;;;;;6.65;5.55;;;;;;;;;;5093330;28;20024;-67
2023/09/08 03:12:50;;;;;;;8.52;6.68;;;;;;;;;;5093560;28;20422;-67
2023/09/08 03:15:16;;;;;;;9.83;6.70;;;;;;;;;;5093894;28;20062;-67
2023/09/08 03:17:41;;;;;;;8.70;6.97;;;;;;;;;;5093143;28;20277;-67
2023/09/08 03:20:07;;;;;;;8.97;7.63;;;;;;;;;;5093434;28;20286;-67
2023/09/08 03:22:32;;;;;;;7.82;6.90;;;;;;;;;;5090111;28;20289;-67
2023/09/08 03:24:58;;;;;;;8.33;7.17;;;;;;;;;;5086885;28;20020;-67
2023/09/08 03:27:23;;;;;;;7.60;6.73;;;;;;;;;;5092527;28;20312;-68
2023/09/08 03:29:48;;;;;;;8.70;6.90;;;;;;;;;;5093987;28;20322;-67
2023/09/08 03:32:13;;;;;;;8.13;7.15;;;;;;;;;;5093457;28;20313;-67
2023/09/08 03:34:39;;;;;;;8.17;7.33;;;;;;;;;;5077795;28;20029;-67
2023/09/08 03:37:04;;;;;;;8.55;7.50;;;;;;;;;;5073917;28;20431;-67
2023/09/08 03:39:30;;;;;;;9.40;7.43;;;;;;;;;;5086466;28;20035;-67
2023/09/08 03:41:55;;;;;;;10.13;7.53;;;;;;;;;;5074093;28;20028;-67
2023/09/08 03:44:20;;;;;;;8.23;7.00;;;;;;;;;;5073519;28;20353;-67
2023/09/08 03:46:45;;;;;;;8.67;7.23;;;;;;;;;;5073871;28;20266;-67
2023/09/08 03:49:11;;;;;;;8.93;7.07;;;;;;;;;;5073825;28;20660;-67
2023/09/08 03:51:36;;;;;;;10.98;8.07;;;;;;;;;;5073810;28;20278;-68
2023/09/08 03:54:03;;;;;;;9.40;6.68;;;;;;;;;;5084837;28;20046;-67
2023/09/08 03:56:31;;;;;;;8.07;6.63;;;;;;;;;;5075076;28;20059;-67
2023/09/08 03:58:56;;;;;;;8.68;7.30;;;;;;;;;;5073756;28;20036;-67
2023/09/08 04:01:21;;;;;;;7.70;6.90;;;;;;;;;;5074205;28;20028;-67
2023/09/08 04:03:47;;;;;;;9.70;7.32;;;;;;;;;;5074492;28;20036;-67
2023/09/08 04:06:12;;;;;;;7.90;6.55;;;;;;;;;;5069071;28;20107;-67
2023/09/08 04:08:37;;;;;;;10.23;8.03;;;;;;;;;;5074496;28;20031;-67
2023/09/08 04:11:02;;;;;;;8.70;7.80;;;;;;;;;;5087501;28;20731;-67
2023/09/08 04:13:28;;;;;;;8.00;7.20;;;;;;;;;;5073082;28;20270;-68
2023/09/08 04:15:53;;;;;;;8.02;7.22;;;;;;;;;;5075350;28;20325;-68
2023/09/08 04:18:18;;;;;;;9.53;7.07;;;;;;;;;;5093268;28;20024;-68
2023/09/08 04:20:43;;;;;;;9.23;7.25;;;;;;;;;;5092572;28;20274;-68
2023/09/08 04:23:09;;;;;;;10.20;7.80;;;;;;;;;;5083696;28;20067;-68
2023/09/08 04:25:34;;;;;;;8.88;7.55;;;;;;;;;;5090000;28;20271;-67
2023/09/08 04:27:59;;;;;;;8.68;7.45;;;;;;;;;;5093316;28;20047;-67
2023/09/08 04:30:25;;;;;;;8.57;7.13;;;;;;;;;;5091939;28;20069;-67
2023/09/08 04:32:50;;;;;;;9.20;7.70;;;;;;;;;;5092664;28;20827;-67
2023/09/08 04:35:15;;;;;;;9.73;7.70;;;;;;;;;;5086286;28;20024;-68
2023/09/08 04:37:40;;;;;;;9.10;7.43;;;;;;;;;;5073600;28;20358;-68
2023/09/08 04:40:07;;;;;;;10.27;7.70;;;;;;;;;;5085146;28;20293;-67
2023/09/08 04:42:32;;;;;;;8.48;7.60;;;;;;;;;;5079790;28;20063;-67
2023/09/08 04:44:57;;;;;;;9.68;7.93;;;;;;;;;;5082465;28;20032;-67
2023/09/08 04:47:22;;;;;;;8.67;7.77;;;;;;;;;;5088399;28;20023;-68
2023/09/08 04:49:48;;;;;;;9.35;8.40;;;;;;;;;;5083845;28;20286;-68
2023/09/08 04:52:13;;;;;;;9.87;7.80;;;;;;;;;;5092580;28;20429;-68
2023/09/08 04:54:39;;;;;;;8.98;7.93;;;;;;;;;;5091903;28;20411;-68
2023/09/08 04:57:04;;;;;;;8.95;8.05;;;;;;;;;;5079453;28;20024;-68
2023/09/08 04:59:29;;;;;;;10.70;8.67;;;;;;;;;;5082943;28;20020;-68
2023/09/08 05:01:55;;;;;;;10.50;8.63;;;;;;;;;;5087027;28;20317;-68
2023/09/08 05:04:21;;;;;;;10.17;8.73;;;;;;;;;;5074123;28;20048;-68
2023/09/08 05:06:46;;;;;;;9.13;8.02;;;;;;;;;;5089915;28;20274;-67
2023/09/08 05:09:12;;;;;;;9.50;8.25;;;;;;;;;;5084813;28;20522;-67
2023/09/08 05:11:38;;;;;;;9.30;7.72;;;;;;;;;;5091429;28;20103;-68
2023/09/08 05:14:03;;;;;;;13.02;8.68;;;;;;;;;;5088797;28;20435;-68
2023/09/08 05:16:46;;;;;;;10.73;8.77;;;;;;;;;;5090334;28;20036;-68
2023/09/08 05:19:12;;;;;;;9.43;8.38;;;;;;;;;;5086080;28;20059;-68
2023/09/08 05:21:37;;;;;;;10.73;8.27;;;;;;;;;;5088940;28;20016;-68
2023/09/08 05:24:03;;;;;;;10.55;8.10;;;;;;;;;;5089582;28;20468;-68
2023/09/08 05:26:28;;;;;;;10.90;8.77;;;;;;;;;;5091764;28;20043;-68
2023/09/08 05:28:53;;;;;;;11.18;9.18;;;;;;;;;;5076492;28;20024;-68
2023/09/08 05:31:19;;;;;;;9.73;8.73;;;;;;;;;;5073491;28;20031;-68
2023/09/08 05:33:44;;;;;;;10.20;7.87;;;;;;;;;;5074700;28;20394;-68
2023/09/08 05:36:09;;;;;;;9.43;8.15;;;;;;;;;;5073750;28;20263;-67
2023/09/08 05:38:34;;;;;;;10.73;8.10;;;;;;;;;;5075176;28;20111;-68
2023/09/08 05:41:00;;;;;;;10.60;8.43;;;;;;;;;;5076904;28;20097;-68
2023/09/08 05:43:25;;;;;;;10.33;9.33;;;;;;;;;;5075302;28;20030;-68
2023/09/08 05:45:50;;;;;;;10.65;9.32;;;;;;;;;;5084776;28;20306;-68
2023/09/08 05:48:16;;;;;;;10.40;8.88;;;;;;;;;;5075539;28;20016;-68
2023/09/08 05:50:41;;;;;;;9.93;8.88;;;;;;;;;;5084798;28;20031;-68
2023/09/08 05:53:06;;;;;;;10.77;9.35;;;;;;;;;;5080607;28;20031;-67
2023/09/08 05:55:31;;;;;;;9.70;8.70;;;;;;;;;;5080168;28;20460;-68
2023/09/08 05:57:57;;;;;;;9.03;8.13;;;;;;;;;;5075935;28;20274;-68
2023/09/08 06:00:22;;;;;;;10.68;8.93;;;;;;;;;;5073924;28;20294;-68
2023/09/08 06:02:47;;;;;;;8.65;7.75;;;;;;;;;;5074655;28;20460;-68
2023/09/08 06:05:13;;;;;;;9.40;8.40;;;;;;;;;;5071817;28;20380;-69
2023/09/08 06:07:38;;;;;;;10.37;8.47;;;;;;;;;;5071838;28;20030;-68
2023/09/08 06:10:03;;;;;;;9.57;8.52;;;;;;;;;;5079012;28;20266;-68
2023/09/08 06:12:28;;;;;;;10.65;9.27;;;;;;;;;;5090548;28;20023;-67
2023/09/08 06:14:54;;;;;;;9.73;8.73;;;;;;;;;;5072101;28;20480;-68
2023/09/08 06:17:19;;;;;;;11.00;9.33;;;;;;;;;;5071926;28;20676;-67
2023/09/08 06:19:44;;;;;;;9.37;8.23;;;;;;;;;;5078387;28;20282;-68
2023/09/08 06:22:10;;;;;;;12.93;8.73;;;;;;;;;;5090906;28;20278;-68
2023/09/08 06:24:35;;;;;;;9.77;8.77;;;;;;;;;;5091600;28;20493;-67
2023/09/08 06:27:01;;;;;;;10.82;9.68;;;;;;;;;;5091149;28;20008;-68
2023/09/08 06:29:26;;;;;;;9.30;8.40;;;;;;;;;;5091381;28;20016;-68
2023/09/08 06:31:51;;;;;;;10.55;8.82;;;;;;;;;;5077024;28;20047;-68
2023/09/08 06:34:20;;;;;;;10.25;8.13;;;;;;;;;;5090819;28;20566;-68
2023/09/08 06:36:45;;;;;;;13.63;10.07;;;;;;;;;;5089731;28;20070;-68
2023/09/08 06:39:11;;;;;;;10.40;9.10;;;;;;;;;;5090513;28;20434;-68
2023/09/08 06:41:36;;;;;;;10.93;9.30;;;;;;;;;;5089481;28;20321;-68
2023/09/08 06:44:01;;;;;;;11.88;10.00;;;;;;;;;;5089053;28;20316;-68
2023/09/08 06:46:26;;;;;;;10.48;8.35;;;;;;;;;;5089165;28;20059;-68
2023/09/08 06:48:52;;;;;;;10.95;9.85;;;;;;;;;;5090613;28;20016;-68
2023/09/08 06:51:17;;;;;;;14.93;11.23;;;;;;;;;;5088887;28;20020;-69
2023/09/08 06:53:43;;;;;;;12.90;11.18;;;;;;;;;;5089503;28;20046;-68
2023/09/08 06:56:08;;;;;;;15.63;11.63;;;;;;;;;;5088702;28;20086;-68
2023/09/08 06:58:33;;;;;;;15.07;12.90;;;;;;;;;;5091538;28;20028;-68
2023/09/08 07:00:59;;;;;;;17.65;11.95;;;;;;;;;;5076401;28;20276;-67
2023/09/08 07:03:26;;;;;;;16.07;13.30;;;;;;;;;;5080564;28;20044;-68
2023/09/08 07:05:51;;;;;;;16.83;13.40;;;;;;;;;;5079727;28;20312;-67
2023/09/08 07:08:17;;;;;;;19.07;15.20;;;;;;;;;;5072064;28;20032;-66
2023/09/08 07:10:43;;;;;;;17.88;15.65;;;;;;;;;;5082774;28;20279;-67
2023/09/08 07:13:08;;;;;;;17.70;14.82;;;;;;;;;;5071952;28;20102;-67
2023/09/08 07:15:33;;;;;;;17.37;14.00;;;;;;;;;;5073808;28;20154;-67
2023/09/08 07:17:59;;;;;;;17.67;15.77;;;;;;;;;;5072979;28;20273;-67
2023/09/08 07:20:25;;;;;;;18.67;16.67;;;;;;;;;;5090953;28;20029;-68
2023/09/08 07:22:50;;;;;;;19.88;16.92;;;;;;;;;;5086849;28;20279;-67
2023/09/08 07:25:15;;;;;;;19.70;15.93;;;;;;;;;;5089749;28;20036;-67
2023/09/08 07:27:41;;;;;;;18.83;15.40;;;;;;;;;;5091041;28;20312;-67
2023/09/08 07:30:06;;;;;;;21.27;16.35;;;;;;;;;;5090270;28;20426;-67
2023/09/08 07:32:32;;;;;;;18.85;15.25;;;;;;;;;;5091677;28;20476;-68
2023/09/08 07:34:57;;;;;;;20.15;14.65;;;;;;;;;;5088099;28;20073;-67
2023/09/08 07:37:23;;;;;;;19.33;13.87;;;;;;;;;;5081939;28;20025;-68
2023/09/08 07:39:49;;;;;;;16.77;12.90;;;;;;;;;;5085167;28;20444;-68
2023/09/08 07:42:15;;;;;;;13.48;12.07;;;;;;;;;;5074095;28;20025;-68
2023/09/08 07:44:41;;;;;;;12.27;11.07;;;;;;;;;;5085077;28;20074;-68
2023/09/08 07:47:06;;;;;;;12.85;10.35;;;;;;;;;;5081675;28;20020;-67
2023/09/08 07:49:33;;;;;;;10.80;9.65;;;;;;;;;;5085300;28;20016;-67
2023/09/08 07:52:08;;;;;;;11.60;9.02;;;;;;;;;;5088803;28;20038;-69
2023/09/08 07:54:34;;;;;;;12.13;7.78;;;;;;;;;;5090902;28;20043;-67
2023/09/08 07:56:59;;;;;;;11.07;8.43;;;;;;;;;;5087802;28;20019;-67
2023/09/08 07:59:24;;;;;;;9.05;8.10;;;;;;;;;;5085955;28;20051;-67
2023/09/08 08:01:50;;;;;;;9.17;7.40;;;;;;;;;;5077719;28;20052;-67
2023/09/08 08:04:15;;;;;;;8.80;6.68;;;;;;;;;;5073422;28;20698;-67
2023/09/08 08:06:41;;;;;;;7.53;6.43;;;;;;;;;;5082141;28;20362;-67
2023/09/08 08:09:06;;;;;;;7.60;6.43;;;;;;;;;;5085360;28;20306;-67
2023/09/08 08:11:31;;;;;;;7.97;5.90;;;;;;;;;;5087912;28;20277;-67
2023/09/08 08:13:56;;;;;;;8.60;5.30;;;;;;;;;;5082828;28;20283;-67
2023/09/08 08:16:22;;;;;;;7.20;5.90;;;;;;;;;;5074260;28;20025;-67
2023/09/08 08:18:48;;;;;;;9.57;6.18;;;;;;;;;;5075207;28;20115;-67
2023/09/08 08:21:13;;;;;;;7.05;5.45;;;;;;;;;;5085088;28;20109;-68
2023/09/08 08:23:38;;;;;;;7.18;5.15;;;;;;;;;;5088424;28;20510;-67
2023/09/08 08:26:03;;;;;;;6.22;5.22;;;;;;;;;;5087844;28;20020;-68
2023/09/08 08:28:29;;;;;;;6.60;5.33;;;;;;;;;;5080505;28;20028;-68
2023/09/08 08:30:55;;;;;;;6.28;5.05;;;;;;;;;;5088513;28;20742;-68
2023/09/08 08:33:22;;;;;;;6.72;4.95;;;;;;;;;;5082636;28;20530;-67
2023/09/08 08:35:50;;;;;;;7.72;5.38;;;;;;;;;;5085385;28;20430;-68
2023/09/08 08:38:15;;;;;;;7.70;5.30;;;;;;;;;;5088541;28;20055;-68
2023/09/08 08:40:40;;;;;;;7.07;5.23;;;;;;;;;;5091641;28;20032;-67
2023/09/08 08:43:06;;;;;;;8.63;5.63;;;;;;;;;;5088694;28;20296;-67
2023/09/08 08:45:32;;;;;;;8.10;5.80;;;;;;;;;;5091258;28;20274;-68
2023/09/08 08:47:57;;;;;;;6.82;5.35;;;;;;;;;;5091150;28;20050;-68
2023/09/08 08:50:24;;;;;;;6.88;5.63;;;;;;;;;;5091370;28;20043;-68
2023/09/08 08:52:49;;;;;;;6.47;5.00;;;;;;;;;;5090140;28;20036;-68
2023/09/08 08:55:15;;;;;;;10.45;5.63;;;;;;;;;;5091433;28;20471;-68
2023/09/08 08:57:41;;;;;;;6.50;5.45;;;;;;;;;;5091147;28;20019;-67
2023/09/08 09:00:10;;;;;;;6.63;5.47;;;;;;;;;;5091868;28;20020;-68
2023/09/08 09:02:38;;;;;;;8.20;5.90;;;;;;;;;;5082142;28;20021;-67
2023/09/08 09:05:04;;;;;;;7.18;4.80;;;;;;;;;;5078409;28;20020;-67
2023/09/08 09:07:30;;;;;;;6.93;6.10;;;;;;;;;;5078048;28;20051;-67
2023/09/08 09:09:55;;;;;;;6.47;5.03;;;;;;;;;;5085819;28;20502;-67
2023/09/08 09:12:21;;;;;;;7.65;5.50;;;;;;;;;;5089487;28;20032;-68
2023/09/08 09:14:49;;;;;;;7.22;5.88;;;;;;;;;;5085610;28;20028;-68
2023/09/08 09:17:15;;;;;;;6.05;5.10;;;;;;;;;;5090338;28;20063;-68
2023/09/08 09:19:40;;;;;;;7.75;5.45;;;;;;;;;;5084887;28;20098;-67
2023/09/08 09:22:05;;;;;;;8.40;5.57;;;;;;;;;;5065434;28;20020;-67
2023/09/08 09:24:40;;;;;;;6.50;5.43;;;;;;;;;;5051715;28;20274;-68
2023/09/08 09:27:06;;;;;;;8.88;6.05;;;;;;;;;;5086895;28;20753;-68
2023/09/08 09:29:32;;;;;;;7.53;5.88;;;;;;;;;;5090189;28;20028;-67
2023/09/08 09:32:01;;;;;;;10.27;6.03;;;;;;;;;;5088255;28;20024;-67
2023/09/08 09:34:27;;;;;;;7.63;5.60;;;;;;;;;;5081083;28;20059;-68
2023/09/08 09:36:52;;;;;;;6.63;5.70;;;;;;;;;;5083528;28;20509;-67
2023/09/08 09:39:18;;;;;;;7.93;6.53;;;;;;;;;;5089269;28;20328;-68
2023/09/08 09:41:45;;;;;;;7.38;5.68;;;;;;;;;;5085869;28;20379;-67
2023/09/08 09:44:10;;;;;;;8.13;5.80;;;;;;;;;;5087928;28;20035;-68
2023/09/08 09:46:36;;;;;;;6.93;6.20;;;;;;;;;;5077763;28;20047;-67
2023/09/08 09:49:01;;;;;;;6.80;5.55;;;;;;;;;;5083117;28;20027;-68
2023/09/08 09:51:26;;;;;;;6.33;5.27;;;;;;;;;;5078080;28;20070;-68
2023/09/08 09:53:52;;;;;;;6.87;5.90;;;;;;;;;;5081072;28;20632;-68
2023/09/08 09:56:17;;;;;;;6.63;5.45;;;;;;;;;;5083468;28;20403;-68
2023/09/08 09:58:43;;;;;;;7.00;5.30;;;;;;;;;;5084395;28;20031;-68
2023/09/08 10:01:11;;;;;;;6.63;5.75;;;;;;;;;;5088866;28;20051;-67
2023/09/08 10:03:37;;;;;;;8.88;6.07;;;;;;;;;;5085006;28;20024;-68
2023/09/08 10:06:02;;;;;;;8.77;5.47;;;;;;;;;;5084086;28;20107;-66
2023/09/08 10:08:28;;;;;;;7.03;5.82;;;;;;;;;;5072588;28;20020;-67
2023/09/08 10:10:55;;;;;;;8.98;5.32;;;;;;;;;;5074624;28;20028;-66
2023/09/08 10:13:24;;;;;;;6.75;5.57;;;;;;;;;;5081787;28;20111;-67
2023/09/08 10:15:50;;;;;;;7.35;5.47;;;;;;;;;;5086166;28;20081;-67
2023/09/08 10:18:16;;;;;;;11.50;6.00;;;;;;;;;;5082862;28;20020;-68
2023/09/08 10:20:42;;;;;;;6.40;5.13;;;;;;;;;;5088809;28;20028;-67
2023/09/08 10:23:12;;;;;;;6.28;5.20;;;;;;;;;;5090521;28;20028;-67
2023/09/08 10:25:45;;;;;;;5.70;4.82;;;;;;;;;;5088546;28;20099;-67
2023/09/08 10:28:10;;;;;;;6.20;5.60;;;;;;;;;;5084337;28;20020;-67
2023/09/08 10:30:36;;;;;;;6.68;5.93;;;;;;;;;;5083651;28;20035;-67
2023/09/08 10:33:02;;;;;;;8.60;5.80;;;;;;;;;;5083199;28;20107;-67
2023/09/08 10:35:27;;;;;;;6.80;5.57;;;;;;;;;;5088565;28;20062;-67
2023/09/08 10:38:13;;;;;;;7.30;4.93;;;;;;;;;;5082833;28;20455;-68
2023/09/08 10:40:38;;;;;;;6.88;5.15;;;;;;;;;;5081451;28;20036;-67
2023/09/08 10:43:07;;;;;;;6.85;5.30;;;;;;;;;;5088887;28;20488;-68
2023/09/08 10:45:32;;;;;;;8.73;5.70;;;;;;;;;;5085565;28;20035;-67
2023/09/08 10:47:58;;;;;;;6.53;5.83;;;;;;;;;;5084830;28;20024;-67
2023/09/08 10:50:27;;;;;;;6.95;5.85;;;;;;;;;;5083315;28;20299;-67
2023/09/08 10:53:12;;;;;;;6.38;5.43;;;;;;;;;;5085911;28;20472;-67
2023/09/08 10:55:40;;;;;;;7.03;5.45;;;;;;;;;;5086676;28;20016;-67
2023/09/08 10:58:06;;;;;;;8.93;5.63;;;;;;;;;;5091077;28;20080;-67
2023/09/08 11:00:42;;;;;;;6.03;5.40;;;;;;;;;;5081918;28;20107;-67
2023/09/08 11:03:07;;;;;;;7.63;5.70;;;;;;;;;;5088229;28;20039;-67
2023/09/08 11:05:33;;;;;;;8.80;5.43;;;;;;;;;;5079912;28;20391;-67
2023/09/08 11:07:59;;;;;;;7.25;5.88;;;;;;;;;;5087150;28;20305;-67
2023/09/08 11:10:24;;;;;;;6.40;5.30;;;;;;;;;;5085089;28;20035;-67
2023/09/08 11:12:51;;;;;;;6.10;5.20;;;;;;;;;;5086737;28;20012;-67
2023/09/08 11:15:16;;;;;;;8.18;6.15;;;;;;;;;;5078761;28;20078;-67
2023/09/08 11:17:42;;;;;;;6.22;5.25;;;;;;;;;;5083661;28;20012;-67
2023/09/08 11:20:09;;;;;;;7.72;5.85;;;;;;;;;;5089453;28;20398;-67
2023/09/08 11:22:35;;;;;;;6.93;4.45;;;;;;;;;;5093982;28;20021;-67
2023/09/08 11:25:00;;;;;;;8.20;5.13;;;;;;;;;;5093313;28;20039;-67
2023/09/08 11:27:27;;;;;;;7.57;5.20;;;;;;;;;;5079311;28;20085;-67
2023/09/08 11:29:52;;;;;;;6.35;4.80;;;;;;;;;;5093119;28;20469;-66
2023/09/08 11:32:17;;;;;;;6.13;4.77;;;;;;;;;;5091938;28;20115;-67
2023/09/08 11:34:43;;;;;;;7.57;4.10;;;;;;;;;;5092578;28;20343;-67
2023/09/08 11:37:13;;;;;;;5.63;3.83;;;;;;;;;;5066989;28;20486;-67
2023/09/08 11:39:42;;;;;;;6.00;4.13;;;;;;;;;;5084086;28;20294;-66
2023/09/08 11:42:08;;;;;;;5.50;3.72;;;;;;;;;;5091314;28;20024;-66
2023/09/08 11:44:36;;;;;;;5.20;4.22;;;;;;;;;;5088793;28;20054;-67
2023/09/08 11:47:10;;;;;;;5.22;4.15;;;;;;;;;;5084947;28;20685;-67
2023/09/08 11:49:36;;;;;;;6.13;3.50;;;;;;;;;;5087222;28;20540;-67
2023/09/08 11:52:03;;;;;;;6.47;3.90;;;;;;;;;;5086417;28;20024;-67
2023/09/08 11:54:28;;;;;;;4.55;3.70;;;;;;;;;;5087340;28;20387;-67
2023/09/08 11:56:54;;;;;;;5.93;4.22;;;;;;;;;;5081845;28;20115;-67
2023/09/08 11:59:20;;;;;;;6.15;3.92;;;;;;;;;;5081820;28;20153;-67
2023/09/08 12:01:45;;;;;;;5.78;4.03;;;;;;;;;;5091870;28;20024;-67
2023/09/08 12:04:17;;;;;;;5.03;3.50;;;;;;;;;;5080915;28;20028;-67
2023/09/08 12:06:42;;;;;;;4.75;3.53;;;;;;;;;;5074649;28;20684;-67
2023/09/08 12:09:07;;;;;;;6.20;3.00;;;;;;;;;;5086615;28;20020;-67
2023/09/08 12:11:37;;;;;;;4.37;3.33;;;;;;;;;;5075374;28;20021;-67
2023/09/08 12:14:06;;;;;;;6.43;3.30;;;;;;;;;;5087515;28;20304;-67
2023/09/08 12:16:31;;;;;;;4.80;3.45;;;;;;;;;;5076597;28;20539;-67
2023/09/08 12:18:56;;;;;;;4.43;3.20;;;;;;;;;;5087210;28;20040;-65
2023/09/08 12:21:22;;;;;;;4.43;3.30;;;;;;;;;;5084210;28;20389;-67
2023/09/08 12:23:49;;;;;;;6.30;3.43;;;;;;;;;;5088671;28;20416;-67
2023/09/08 12:26:16;;;;;;;4.32;3.33;;;;;;;;;;5091328;28;20107;-67
2023/09/08 12:28:41;;;;;;;4.72;3.17;;;;;;;;;;5087010;28;20078;-67
2023/09/08 12:31:07;;;;;;;3.92;2.95;;;;;;;;;;5085067;28;20033;-67
2023/09/08 12:33:32;;;;;;;5.55;3.30;;;;;;;;;;5087046;28;20032;-68
2023/09/08 12:35:57;;;;;;;4.53;3.63;;;;;;;;;;5072687;28;20032;-67
2023/09/08 12:38:23;;;;;;;5.13;3.43;;;;;;;;;;5077731;28;20040;-67
2023/09/08 12:40:48;;;;;;;4.32;3.40;;;;;;;;;;5087656;28;20039;-67
2023/09/08 12:43:13;;;;;;;4.40;3.77;;;;;;;;;;5048657;28;20138;-67
2023/09/08 12:45:39;;;;;;;7.17;4.00;;;;;;;;;;5036482;28;20267;-67
2023/09/08 12:48:06;;;;;;;7.87;4.47;;;;;;;;;;5047500;28;20085;-66
2023/09/08 12:50:32;;;;;;;4.80;3.58;;;;;;;;;;5048656;28;20921;-66
2023/09/08 12:52:57;;;;;;;5.22;4.20;;;;;;;;;;5051074;28;20135;-65
2023/09/08 12:55:22;;;;;;;5.47;4.50;;;;;;;;;;5037682;28;20028;-67
2023/09/08 12:57:49;;;;;;;5.80;4.20;;;;;;;;;;5049236;28;21108;-67
2023/09/08 13:00:15;;;;;;;4.90;4.20;;;;;;;;;;5043398;28;20040;-67
2023/09/08 13:02:41;;;;;;;7.25;4.47;;;;;;;;;;5059746;28;20029;-67
2023/09/08 13:05:06;;;;;;;5.65;4.65;;;;;;;;;;5079980;28;20032;-67
2023/09/08 13:07:32;;;;;;;7.05;4.22;;;;;;;;;;5073661;28;20017;-68
2023/09/08 13:09:57;;;;;;;5.22;4.20;;;;;;;;;;5081527;28;20024;-68
2023/09/08 13:12:22;;;;;;;5.70;4.47;;;;;;;;;;5086569;28;20047;-67
2023/09/08 13:14:47;;;;;;;6.13;4.40;;;;;;;;;;5085306;28;20337;-67
2023/09/08 13:17:16;;;;;;;5.63;4.28;;;;;;;;;;5087928;28;20028;-67
2023/09/08 13:19:42;;;;;;;4.85;4.18;;;;;;;;;;5090808;28;20020;-67
2023/09/08 13:22:08;;;;;;;6.07;4.18;;;;;;;;;;5078040;28;20028;-67
2023/09/08 13:24:33;;;;;;;6.03;4.50;;;;;;;;;;5089201;28;20036;-67
2023/09/08 13:27:00;;;;;;;7.00;4.43;;;;;;;;;;5087047;28;20044;-67
2023/09/08 13:29:26;;;;;;;5.43;4.05;;;;;;;;;;5086211;28;20402;-67
2023/09/08 13:31:52;;;;;;;6.75;4.70;;;;;;;;;;5056438;28;20038;-67
2023/09/08 13:34:17;;;;;;;5.45;4.50;;;;;;;;;;5064136;28;20024;-67
2023/09/08 13:36:42;;;;;;;4.63;4.00;;;;;;;;;;5076575;28;20022;-67
2023/09/08 13:39:08;;;;;;;5.60;4.27;;;;;;;;;;5081351;28;20286;-67
2023/09/08 13:41:50;;;;;;;6.53;4.35;;;;;;;;;;5077560;28;20059;-67
2023/09/08 13:44:16;;;;;;;5.13;3.90;;;;;;;;;;5081604;28;20032;-67
2023/09/08 13:46:42;;;;;;;6.95;4.10;;;;;;;;;;5075555;28;20104;-67
2023/09/08 13:49:07;;;;;;;6.47;4.03;;;;;;;;;;5081909;28;20111;-67
2023/09/08 13:51:33;;;;;;;5.63;4.30;;;;;;;;;;5076538;28;20024;-67
2023/09/08 13:53:58;;;;;;;5.28;3.70;;;;;;;;;;5086718;28;20118;-67
2023/09/08 13:56:23;;;;;;;6.13;3.83;;;;;;;;;;5079688;28;20043;-67
2023/09/08 13:58:49;;;;;;;5.17;3.83;;;;;;;;;;5072252;28;20309;-67
2023/09/08 14:01:15;;;;;;;6.68;3.65;;;;;;;;;;5072632;28;20368;-67
2023/09/08 14:03:40;;;;;;;7.78;3.83;;;;;;;;;;5074540;28;20096;-67
2023/09/08 14:06:05;;;;;;;5.57;4.13;;;;;;;;;;5073040;28;20031;-67
2023/09/08 14:08:30;;;;;;;6.47;4.27;;;;;;;;;;5077382;28;20285;-66
2023/09/08 14:10:56;;;;;;;6.33;3.40;;;;;;;;;;5080487;28;20032;-67
2023/09/08 14:13:21;;;;;;;5.73;3.93;;;;;;;;;;5086521;28;20017;-67
2023/09/08 14:15:46;;;;;;;6.07;4.07;;;;;;;;;;5079600;28;20485;-66
2023/09/08 14:18:13;;;;;;;6.10;4.18;;;;;;;;;;5072476;28;20033;-67
2023/09/08 14:20:39;;;;;;;5.20;4.22;;;;;;;;;;5079574;28;20043;-67
2023/09/08 14:23:04;;;;;;;5.43;4.03;;;;;;;;;;5072139;28;20028;-67
2023/09/08 14:25:29;;;;;;;5.45;4.20;;;;;;;;;;5088936;28;20478;-67
2023/09/08 14:27:54;;;;;;;6.20;4.13;;;;;;;;;;5091689;28;20442;-67
2023/09/08 14:30:20;;;;;;;4.93;4.20;;;;;;;;;;5092726;28;20405;-68